sensor_id;sensor_type;location;lat;lon;timestamp;P1;durP1;ratioP1;P2;durP2;ratioP2
20857;SDS011;10589;53.636;10.012;2022-12-18T04:47:08;22.97;;;11.70;;
20857;SDS011;10589;53.636;10.012;2022-12-18T04:49:33;19.60;;;10.87;;
20857;SDS011;10589;53.636;10.012;2022-12-18T04:51:59;23.80;;;11.70;;
20857;SDS011;10589;53.636;10.012;2022-12-18T04:54:24;22.53;;;12.13;;
20857;SDS011;10589;53.636;10.012;2022-12-18T04:56:50;20.30;;;10.97;;
20857;SDS011;10589;53.636;10.012;2022-12-18T04:59:16;22.10;;;12.20;;
20857;SDS011;10589;53.636;10.012;2022-12-18T05:01:41;18.63;;;12.00;;
20857;SDS011;10589;53.636;10.012;2022-12-18T05:04:07;25.47;;;11.63;;
20857;SDS011;10589;53.636;10.012;2022-12-18T05:06:32;21.30;;;11.53;;
20857;SDS011;10589;53.636;10.012;2022-12-18T05:08:58;19.70;;;11.43;;
20857;SDS011;10589;53.636;10.012;2022-12-18T05:11:24;21.60;;;12.00;;
20857;SDS011;10589;53.636;10.012;2022-12-18T05:13:49;19.00;;;11.40;;
20857;SDS011;10589;53.636;10.012;2022-12-18T05:16:15;16.50;;;10.40;;
20857;SDS011;10589;53.636;10.012;2022-12-18T05:18:41;20.07;;;11.33;;
20857;SDS011;10589;53.636;10.012;2022-12-18T05:21:07;21.67;;;10.53;;
20857;SDS011;10589;53.636;10.012;2022-12-18T05:23:35;20.90;;;11.90;;
20857;SDS011;10589;53.636;10.012;2022-12-18T05:26:02;18.53;;;11.07;;
20857;SDS011;10589;53.636;10.012;2022-12-18T05:28:30;21.50;;;12.33;;
20857;SDS011;10589;53.636;10.012;2022-12-18T05:30:59;19.47;;;11.07;;
20857;SDS011;10589;53.636;10.012;2022-12-18T05:33:26;23.97;;;11.20;;
20857;SDS011;10589;53.636;10.012;2022-12-18T05:35:55;18.70;;;11.23;;
20857;SDS011;10589;53.636;10.012;2022-12-18T05:38:22;19.90;;;10.90;;
20857;SDS011;10589;53.636;10.012;2022-12-18T05:40:49;16.13;;;10.83;;
20857;SDS011;10589;53.636;10.012;2022-12-18T05:43:15;17.20;;;10.87;;
20857;SDS011;10589;53.636;10.012;2022-12-18T05:45:41;24.57;;;11.70;;
20857;SDS011;10589;53.636;10.012;2022-12-18T05:48:07;17.43;;;10.73;;
20857;SDS011;10589;53.636;10.012;2022-12-18T05:50:34;19.70;;;11.80;;
20857;SDS011;10589;53.636;10.012;2022-12-18T05:53:03;22.60;;;11.47;;
20857;SDS011;10589;53.636;10.012;2022-12-18T05:55:36;18.43;;;10.40;;
20857;SDS011;10589;53.636;10.012;2022-12-18T05:58:03;19.07;;;10.73;;
20857;SDS011;10589;53.636;10.012;2022-12-18T06:00:30;21.17;;;11.93;;
20857;SDS011;10589;53.636;10.012;2022-12-18T06:02:57;19.20;;;10.80;;
20857;SDS011;10589;53.636;10.012;2022-12-18T06:05:23;22.97;;;11.97;;
20857;SDS011;10589;53.636;10.012;2022-12-18T06:07:49;22.50;;;11.47;;
20857;SDS011;10589;53.636;10.012;2022-12-18T06:10:15;22.87;;;12.17;;
20857;SDS011;10589;53.636;10.012;2022-12-18T06:12:40;20.40;;;11.67;;
20857;SDS011;10589;53.636;10.012;2022-12-18T06:15:06;17.30;;;11.13;;
20857;SDS011;10589;53.636;10.012;2022-12-18T06:17:32;21.53;;;12.37;;
20857;SDS011;10589;53.636;10.012;2022-12-18T06:19:58;20.30;;;12.50;;
20857;SDS011;10589;53.636;10.012;2022-12-18T06:22:23;20.60;;;12.70;;
20857;SDS011;10589;53.636;10.012;2022-12-18T06:24:49;22.50;;;12.20;;
20857;SDS011;10589;53.636;10.012;2022-12-18T06:27:15;19.27;;;11.93;;
20857;SDS011;10589;53.636;10.012;2022-12-18T06:29:41;21.37;;;12.03;;
20857;SDS011;10589;53.636;10.012;2022-12-18T06:32:06;25.50;;;14.13;;
20857;SDS011;10589;53.636;10.012;2022-12-18T06:34:32;25.37;;;12.17;;
20857;SDS011;10589;53.636;10.012;2022-12-18T06:36:58;21.63;;;12.07;;
20857;SDS011;10589;53.636;10.012;2022-12-18T06:39:24;22.43;;;12.23;;
20857;SDS011;10589;53.636;10.012;2022-12-18T06:41:52;23.17;;;12.30;;
20857;SDS011;10589;53.636;10.012;2022-12-18T06:44:17;19.40;;;12.50;;
20857;SDS011;10589;53.636;10.012;2022-12-18T06:46:43;26.57;;;12.57;;
20857;SDS011;10589;53.636;10.012;2022-12-18T06:49:08;24.23;;;13.63;;
20857;SDS011;10589;53.636;10.012;2022-12-18T06:51:34;22.07;;;12.90;;
20857;SDS011;10589;53.636;10.012;2022-12-18T06:54:00;22.57;;;12.27;;
20857;SDS011;10589;53.636;10.012;2022-12-18T06:56:26;19.13;;;11.67;;
20857;SDS011;10589;53.636;10.012;2022-12-18T06:58:52;23.13;;;12.77;;
20857;SDS011;10589;53.636;10.012;2022-12-18T07:01:17;21.10;;;12.73;;
20857;SDS011;10589;53.636;10.012;2022-12-18T07:03:43;22.33;;;12.67;;
20857;SDS011;10589;53.636;10.012;2022-12-18T07:06:13;21.03;;;12.30;;
20857;SDS011;10589;53.636;10.012;2022-12-18T07:08:40;26.03;;;12.93;;
20857;SDS011;10589;53.636;10.012;2022-12-18T07:11:05;21.30;;;12.93;;
20857;SDS011;10589;53.636;10.012;2022-12-18T07:13:31;23.37;;;13.23;;
20857;SDS011;10589;53.636;10.012;2022-12-18T07:16:07;23.43;;;12.40;;
20857;SDS011;10589;53.636;10.012;2022-12-18T07:18:34;26.70;;;14.33;;
20857;SDS011;10589;53.636;10.012;2022-12-18T07:21:02;25.83;;;14.20;;
20857;SDS011;10589;53.636;10.012;2022-12-18T07:23:32;24.30;;;13.43;;
20857;SDS011;10589;53.636;10.012;2022-12-18T07:26:03;24.20;;;13.83;;
20857;SDS011;10589;53.636;10.012;2022-12-18T07:28:31;19.27;;;12.67;;
20857;SDS011;10589;53.636;10.012;2022-12-18T07:30:57;24.80;;;12.57;;
20857;SDS011;10589;53.636;10.012;2022-12-18T07:33:23;26.60;;;14.23;;
20857;SDS011;10589;53.636;10.012;2022-12-18T07:35:49;19.63;;;12.53;;
20857;SDS011;10589;53.636;10.012;2022-12-18T07:38:15;23.03;;;13.33;;
20857;SDS011;10589;53.636;10.012;2022-12-18T07:40:40;22.03;;;13.90;;
20857;SDS011;10589;53.636;10.012;2022-12-18T07:43:06;26.93;;;13.40;;
20857;SDS011;10589;53.636;10.012;2022-12-18T07:45:32;24.13;;;12.83;;
20857;SDS011;10589;53.636;10.012;2022-12-18T07:47:57;30.13;;;14.47;;
20857;SDS011;10589;53.636;10.012;2022-12-18T07:50:23;24.97;;;13.80;;
20857;SDS011;10589;53.636;10.012;2022-12-18T07:52:49;23.73;;;13.53;;
20857;SDS011;10589;53.636;10.012;2022-12-18T07:55:14;25.10;;;13.43;;
20857;SDS011;10589;53.636;10.012;2022-12-18T07:57:40;27.03;;;13.60;;
20857;SDS011;10589;53.636;10.012;2022-12-18T08:00:06;18.73;;;11.77;;
20857;SDS011;10589;53.636;10.012;2022-12-18T08:02:32;23.30;;;13.33;;
20857;SDS011;10589;53.636;10.012;2022-12-18T08:04:57;23.00;;;13.40;;
20857;SDS011;10589;53.636;10.012;2022-12-18T08:07:23;22.03;;;13.07;;
20857;SDS011;10589;53.636;10.012;2022-12-18T08:09:49;26.27;;;13.63;;
20857;SDS011;10589;53.636;10.012;2022-12-18T08:12:14;23.00;;;12.93;;
20857;SDS011;10589;53.636;10.012;2022-12-18T08:14:40;22.30;;;13.13;;
20857;SDS011;10589;53.636;10.012;2022-12-18T08:17:05;19.57;;;12.33;;
20857;SDS011;10589;53.636;10.012;2022-12-18T08:19:31;29.13;;;15.20;;
20857;SDS011;10589;53.636;10.012;2022-12-18T08:21:57;24.60;;;13.67;;
20857;SDS011;10589;53.636;10.012;2022-12-18T08:24:22;24.33;;;14.30;;
20857;SDS011;10589;53.636;10.012;2022-12-18T08:26:48;26.60;;;14.83;;
20857;SDS011;10589;53.636;10.012;2022-12-18T08:29:13;24.10;;;13.77;;
20857;SDS011;10589;53.636;10.012;2022-12-18T08:31:39;29.70;;;13.43;;
20857;SDS011;10589;53.636;10.012;2022-12-18T08:34:04;25.03;;;14.03;;
20857;SDS011;10589;53.636;10.012;2022-12-18T08:36:30;24.47;;;13.27;;
20857;SDS011;10589;53.636;10.012;2022-12-18T08:38:56;21.87;;;13.20;;
20857;SDS011;10589;53.636;10.012;2022-12-18T08:41:21;27.80;;;13.83;;
20857;SDS011;10589;53.636;10.012;2022-12-18T08:43:47;25.50;;;14.60;;
20857;SDS011;10589;53.636;10.012;2022-12-18T08:46:36;20.27;;;12.33;;
20857;SDS011;10589;53.636;10.012;2022-12-18T08:49:06;24.00;;;13.80;;
20857;SDS011;10589;53.636;10.012;2022-12-18T08:51:33;22.93;;;13.57;;
20857;SDS011;10589;53.636;10.012;2022-12-18T08:53:59;25.27;;;13.77;;
20857;SDS011;10589;53.636;10.012;2022-12-18T08:56:25;26.17;;;13.60;;
20857;SDS011;10589;53.636;10.012;2022-12-18T08:58:54;25.90;;;14.23;;
20857;SDS011;10589;53.636;10.012;2022-12-18T09:01:20;25.33;;;13.70;;
20857;SDS011;10589;53.636;10.012;2022-12-18T09:03:46;22.77;;;14.13;;
20857;SDS011;10589;53.636;10.012;2022-12-18T09:06:13;25.40;;;15.37;;
20857;SDS011;10589;53.636;10.012;2022-12-18T09:08:41;24.70;;;14.70;;
20857;SDS011;10589;53.636;10.012;2022-12-18T09:13:50;27.90;;;13.70;;
20857;SDS011;10589;53.636;10.012;2022-12-18T09:16:16;22.93;;;13.87;;
20857;SDS011;10589;53.636;10.012;2022-12-18T09:18:42;26.47;;;15.90;;
20857;SDS011;10589;53.636;10.012;2022-12-18T09:21:12;27.13;;;14.20;;
20857;SDS011;10589;53.636;10.012;2022-12-18T09:23:40;25.30;;;13.63;;
20857;SDS011;10589;53.636;10.012;2022-12-18T09:26:05;21.90;;;12.63;;
20857;SDS011;10589;53.636;10.012;2022-12-18T09:28:31;22.07;;;13.97;;
20857;SDS011;10589;53.636;10.012;2022-12-18T09:30:57;25.57;;;14.13;;
20857;SDS011;10589;53.636;10.012;2022-12-18T09:33:23;20.27;;;13.30;;
20857;SDS011;10589;53.636;10.012;2022-12-18T09:35:48;24.67;;;12.97;;
20857;SDS011;10589;53.636;10.012;2022-12-18T09:38:15;21.63;;;13.03;;
20857;SDS011;10589;53.636;10.012;2022-12-18T09:40:48;23.50;;;13.73;;
20857;SDS011;10589;53.636;10.012;2022-12-18T09:43:19;25.47;;;14.00;;
20857;SDS011;10589;53.636;10.012;2022-12-18T09:45:57;20.40;;;12.47;;
20857;SDS011;10589;53.636;10.012;2022-12-18T09:48:27;21.73;;;13.13;;
20857;SDS011;10589;53.636;10.012;2022-12-18T09:51:01;21.83;;;12.47;;
20857;SDS011;10589;53.636;10.012;2022-12-18T09:53:31;21.97;;;13.03;;
20857;SDS011;10589;53.636;10.012;2022-12-18T09:56:00;23.27;;;12.73;;
20857;SDS011;10589;53.636;10.012;2022-12-18T09:58:36;20.43;;;12.57;;
20857;SDS011;10589;53.636;10.012;2022-12-18T10:01:17;24.17;;;13.13;;
20857;SDS011;10589;53.636;10.012;2022-12-18T10:03:46;22.13;;;12.57;;
20857;SDS011;10589;53.636;10.012;2022-12-18T10:09:13;24.20;;;12.30;;
20857;SDS011;10589;53.636;10.012;2022-12-18T10:12:02;22.67;;;12.70;;
20857;SDS011;10589;53.636;10.012;2022-12-18T10:14:36;20.10;;;12.23;;
20857;SDS011;10589;53.636;10.012;2022-12-18T10:20:56;21.00;;;12.37;;
20857;SDS011;10589;53.636;10.012;2022-12-18T10:23:21;19.33;;;12.60;;
20857;SDS011;10589;53.636;10.012;2022-12-18T10:26:08;19.57;;;11.13;;
20857;SDS011;10589;53.636;10.012;2022-12-18T10:28:39;20.13;;;12.27;;
20857;SDS011;10589;53.636;10.012;2022-12-18T10:31:14;22.93;;;12.00;;
20857;SDS011;10589;53.636;10.012;2022-12-18T10:33:42;23.03;;;12.27;;
20857;SDS011;10589;53.636;10.012;2022-12-18T10:36:08;19.13;;;11.87;;
20857;SDS011;10589;53.636;10.012;2022-12-18T10:38:33;20.07;;;12.53;;
20857;SDS011;10589;53.636;10.012;2022-12-18T10:48:47;18.77;;;12.57;;
20857;SDS011;10589;53.636;10.012;2022-12-18T10:51:27;20.20;;;12.10;;
20857;SDS011;10589;53.636;10.012;2022-12-18T10:56:29;17.57;;;11.53;;
20857;SDS011;10589;53.636;10.012;2022-12-18T10:58:58;18.47;;;11.30;;
20857;SDS011;10589;53.636;10.012;2022-12-18T11:01:26;19.10;;;12.07;;
20857;SDS011;10589;53.636;10.012;2022-12-18T11:06:19;23.30;;;12.53;;
20857;SDS011;10589;53.636;10.012;2022-12-18T11:11:42;21.20;;;12.43;;
20857;SDS011;10589;53.636;10.012;2022-12-18T11:14:21;17.93;;;11.00;;
20857;SDS011;10589;53.636;10.012;2022-12-18T11:16:50;18.90;;;11.60;;
20857;SDS011;10589;53.636;10.012;2022-12-18T11:22:03;18.27;;;11.23;;
20857;SDS011;10589;53.636;10.012;2022-12-18T11:25:36;17.57;;;10.63;;
20857;SDS011;10589;53.636;10.012;2022-12-18T11:27:37;19.03;;;11.70;;
20857;SDS011;10589;53.636;10.012;2022-12-18T11:30:37;18.87;;;10.77;;
20857;SDS011;10589;53.636;10.012;2022-12-18T11:36:02;21.13;;;11.20;;
20857;SDS011;10589;53.636;10.012;2022-12-18T11:38:34;19.17;;;11.33;;
20857;SDS011;10589;53.636;10.012;2022-12-18T11:41:04;19.20;;;11.80;;
20857;SDS011;10589;53.636;10.012;2022-12-18T11:46:34;17.77;;;10.40;;
20857;SDS011;10589;53.636;10.012;2022-12-18T11:49:24;21.00;;;10.93;;
20857;SDS011;10589;53.636;10.012;2022-12-18T11:51:58;17.40;;;10.33;;
20857;SDS011;10589;53.636;10.012;2022-12-18T11:54:34;21.97;;;10.70;;
20857;SDS011;10589;53.636;10.012;2022-12-18T11:57:23;19.23;;;10.40;;
20857;SDS011;10589;53.636;10.012;2022-12-18T12:00:21;19.07;;;10.87;;
20857;SDS011;10589;53.636;10.012;2022-12-18T12:03:05;24.37;;;12.17;;
20857;SDS011;10589;53.636;10.012;2022-12-18T12:08:39;17.13;;;10.23;;
20857;SDS011;10589;53.636;10.012;2022-12-18T12:11:23;17.47;;;10.40;;
20857;SDS011;10589;53.636;10.012;2022-12-18T12:16:59;17.77;;;10.87;;
20857;SDS011;10589;53.636;10.012;2022-12-18T12:19:53;18.37;;;10.60;;
20857;SDS011;10589;53.636;10.012;2022-12-18T12:28:13;17.77;;;10.70;;
20857;SDS011;10589;53.636;10.012;2022-12-18T12:31:23;16.20;;;10.27;;
20857;SDS011;10589;53.636;10.012;2022-12-18T12:36:46;17.73;;;10.20;;
20857;SDS011;10589;53.636;10.012;2022-12-18T12:39:28;16.57;;;10.43;;
20857;SDS011;10589;53.636;10.012;2022-12-18T12:41:56;20.20;;;10.67;;
20857;SDS011;10589;53.636;10.012;2022-12-18T12:44:43;17.80;;;10.07;;
20857;SDS011;10589;53.636;10.012;2022-12-18T12:47:17;19.60;;;10.03;;
20857;SDS011;10589;53.636;10.012;2022-12-18T12:49:52;17.90;;;9.67;;
20857;SDS011;10589;53.636;10.012;2022-12-18T12:52:28;16.67;;;10.03;;
20857;SDS011;10589;53.636;10.012;2022-12-18T12:55:27;21.27;;;12.37;;
20857;SDS011;10589;53.636;10.012;2022-12-18T13:00:55;16.13;;;9.27;;
20857;SDS011;10589;53.636;10.012;2022-12-18T13:03:28;14.83;;;9.37;;
20857;SDS011;10589;53.636;10.012;2022-12-18T13:09:07;14.20;;;9.27;;
20857;SDS011;10589;53.636;10.012;2022-12-18T13:19:41;19.20;;;10.83;;
20857;SDS011;10589;53.636;10.012;2022-12-18T13:22:19;19.63;;;11.10;;
20857;SDS011;10589;53.636;10.012;2022-12-18T13:24:55;17.93;;;10.43;;
20857;SDS011;10589;53.636;10.012;2022-12-18T13:30:56;19.37;;;10.87;;
20857;SDS011;10589;53.636;10.012;2022-12-18T13:40:57;20.67;;;11.67;;
20857;SDS011;10589;53.636;10.012;2022-12-18T13:43:27;20.37;;;11.03;;
20857;SDS011;10589;53.636;10.012;2022-12-18T13:46:17;21.30;;;11.77;;
20857;SDS011;10589;53.636;10.012;2022-12-18T13:48:55;20.80;;;11.83;;
20857;SDS011;10589;53.636;10.012;2022-12-18T13:51:23;24.87;;;12.43;;
20857;SDS011;10589;53.636;10.012;2022-12-18T13:56:22;23.10;;;12.13;;
20857;SDS011;10589;53.636;10.012;2022-12-18T13:59:06;18.00;;;11.50;;
20857;SDS011;10589;53.636;10.012;2022-12-18T14:01:59;21.80;;;12.57;;
20857;SDS011;10589;53.636;10.012;2022-12-18T14:04:27;24.43;;;12.47;;
20857;SDS011;10589;53.636;10.012;2022-12-18T14:07:13;20.43;;;11.67;;
20857;SDS011;10589;53.636;10.012;2022-12-18T14:09:58;22.00;;;12.10;;
20857;SDS011;10589;53.636;10.012;2022-12-18T14:12:32;23.87;;;12.07;;
20857;SDS011;10589;53.636;10.012;2022-12-18T14:15:39;27.23;;;12.63;;
20857;SDS011;10589;53.636;10.012;2022-12-18T14:20:52;22.60;;;11.73;;
20857;SDS011;10589;53.636;10.012;2022-12-18T14:23:37;22.53;;;12.57;;
20857;SDS011;10589;53.636;10.012;2022-12-18T14:26:21;23.93;;;12.57;;
20857;SDS011;10589;53.636;10.012;2022-12-18T14:28:58;27.53;;;13.77;;
20857;SDS011;10589;53.636;10.012;2022-12-18T14:31:27;25.80;;;13.47;;
20857;SDS011;10589;53.636;10.012;2022-12-18T14:33:54;25.07;;;13.37;;
20857;SDS011;10589;53.636;10.012;2022-12-18T14:36:21;23.23;;;13.23;;
20857;SDS011;10589;53.636;10.012;2022-12-18T14:38:57;28.13;;;14.00;;
20857;SDS011;10589;53.636;10.012;2022-12-18T14:41:24;28.63;;;13.73;;
20857;SDS011;10589;53.636;10.012;2022-12-18T14:43:51;29.70;;;15.10;;
20857;SDS011;10589;53.636;10.012;2022-12-18T14:52:05;30.10;;;14.53;;
20857;SDS011;10589;53.636;10.012;2022-12-18T14:54:45;31.17;;;14.80;;
20857;SDS011;10589;53.636;10.012;2022-12-18T14:57:22;26.80;;;14.43;;
20857;SDS011;10589;53.636;10.012;2022-12-18T14:59:51;28.03;;;14.50;;
20857;SDS011;10589;53.636;10.012;2022-12-18T15:02:21;29.80;;;15.43;;
20857;SDS011;10589;53.636;10.012;2022-12-18T15:05:03;30.23;;;15.43;;
20857;SDS011;10589;53.636;10.012;2022-12-18T15:07:41;32.37;;;15.13;;
20857;SDS011;10589;53.636;10.012;2022-12-18T15:10:19;30.93;;;15.93;;
20857;SDS011;10589;53.636;10.012;2022-12-18T15:20:55;34.40;;;15.87;;
20857;SDS011;10589;53.636;10.012;2022-12-18T15:23:25;31.87;;;15.87;;
20857;SDS011;10589;53.636;10.012;2022-12-18T15:26:01;29.70;;;15.40;;
20857;SDS011;10589;53.636;10.012;2022-12-18T15:28:31;33.07;;;16.47;;
20857;SDS011;10589;53.636;10.012;2022-12-18T15:34:20;34.67;;;15.73;;
20857;SDS011;10589;53.636;10.012;2022-12-18T15:36:21;32.70;;;15.13;;
20857;SDS011;10589;53.636;10.012;2022-12-18T15:38:49;34.20;;;15.93;;
20857;SDS011;10589;53.636;10.012;2022-12-18T15:41:16;37.97;;;16.13;;
20857;SDS011;10589;53.636;10.012;2022-12-18T15:43:45;32.30;;;15.33;;
20857;SDS011;10589;53.636;10.012;2022-12-18T15:46:13;31.27;;;15.33;;
20857;SDS011;10589;53.636;10.012;2022-12-18T15:48:53;34.10;;;15.27;;
20857;SDS011;10589;53.636;10.012;2022-12-18T15:53:48;30.20;;;14.57;;
20857;SDS011;10589;53.636;10.012;2022-12-18T15:56:16;30.93;;;15.30;;
20857;SDS011;10589;53.636;10.012;2022-12-18T15:59:00;33.37;;;15.93;;
20857;SDS011;10589;53.636;10.012;2022-12-18T16:01:28;37.93;;;15.97;;
20857;SDS011;10589;53.636;10.012;2022-12-18T16:03:55;40.20;;;17.93;;
20857;SDS011;10589;53.636;10.012;2022-12-18T16:06:21;40.03;;;18.30;;
20857;SDS011;10589;53.636;10.012;2022-12-18T16:08:47;42.10;;;18.83;;
20857;SDS011;10589;53.636;10.012;2022-12-18T16:14:03;33.37;;;16.10;;
20857;SDS011;10589;53.636;10.012;2022-12-18T16:16:41;29.27;;;14.20;;
20857;SDS011;10589;53.636;10.012;2022-12-18T16:19:07;34.07;;;16.80;;
20857;SDS011;10589;53.636;10.012;2022-12-18T16:21:32;39.50;;;17.70;;
20857;SDS011;10589;53.636;10.012;2022-12-18T16:23:58;38.63;;;17.30;;
20857;SDS011;10589;53.636;10.012;2022-12-18T16:26:24;34.37;;;16.40;;
20857;SDS011;10589;53.636;10.012;2022-12-18T16:28:49;33.43;;;16.63;;
20857;SDS011;10589;53.636;10.012;2022-12-18T16:31:15;34.40;;;16.40;;
20857;SDS011;10589;53.636;10.012;2022-12-18T16:33:40;35.33;;;16.80;;
20857;SDS011;10589;53.636;10.012;2022-12-18T16:36:06;36.80;;;17.90;;
20857;SDS011;10589;53.636;10.012;2022-12-18T16:38:32;33.63;;;16.93;;
20857;SDS011;10589;53.636;10.012;2022-12-18T16:40:58;39.53;;;16.87;;
20857;SDS011;10589;53.636;10.012;2022-12-18T16:43:42;34.37;;;17.03;;
20857;SDS011;10589;53.636;10.012;2022-12-18T16:46:08;35.43;;;17.30;;
20857;SDS011;10589;53.636;10.012;2022-12-18T16:48:33;36.40;;;16.97;;
20857;SDS011;10589;53.636;10.012;2022-12-18T16:50:59;35.17;;;17.17;;
20857;SDS011;10589;53.636;10.012;2022-12-18T16:53:30;36.63;;;17.53;;
20857;SDS011;10589;53.636;10.012;2022-12-18T16:55:57;35.40;;;18.43;;
20857;SDS011;10589;53.636;10.012;2022-12-18T16:58:23;39.57;;;17.73;;
20857;SDS011;10589;53.636;10.012;2022-12-18T17:00:48;37.53;;;17.33;;
20857;SDS011;10589;53.636;10.012;2022-12-18T17:03:14;34.70;;;17.30;;
20857;SDS011;10589;53.636;10.012;2022-12-18T17:05:39;35.93;;;17.30;;
20857;SDS011;10589;53.636;10.012;2022-12-18T17:08:05;38.23;;;18.30;;
20857;SDS011;10589;53.636;10.012;2022-12-18T17:10:31;34.60;;;17.37;;
20857;SDS011;10589;53.636;10.012;2022-12-18T17:12:58;33.73;;;16.77;;
20857;SDS011;10589;53.636;10.012;2022-12-18T17:15:25;35.90;;;17.53;;
20857;SDS011;10589;53.636;10.012;2022-12-18T17:17:50;37.67;;;17.77;;
20857;SDS011;10589;53.636;10.012;2022-12-18T17:20:16;35.70;;;17.80;;
20857;SDS011;10589;53.636;10.012;2022-12-18T17:22:41;39.43;;;17.60;;
20857;SDS011;10589;53.636;10.012;2022-12-18T17:25:07;35.07;;;16.73;;
20857;SDS011;10589;53.636;10.012;2022-12-18T17:27:33;32.20;;;16.43;;
20857;SDS011;10589;53.636;10.012;2022-12-18T17:29:59;36.70;;;16.97;;
20857;SDS011;10589;53.636;10.012;2022-12-18T17:32:24;36.30;;;15.77;;
20857;SDS011;10589;53.636;10.012;2022-12-18T17:34:50;32.97;;;17.20;;
20857;SDS011;10589;53.636;10.012;2022-12-18T17:37:15;32.93;;;16.73;;
20857;SDS011;10589;53.636;10.012;2022-12-18T17:39:41;30.43;;;16.00;;
20857;SDS011;10589;53.636;10.012;2022-12-18T17:42:07;35.70;;;15.40;;
20857;SDS011;10589;53.636;10.012;2022-12-18T17:44:34;33.10;;;16.03;;
20857;SDS011;10589;53.636;10.012;2022-12-18T17:47:00;29.40;;;14.97;;
20857;SDS011;10589;53.636;10.012;2022-12-18T17:49:26;34.50;;;15.70;;
20857;SDS011;10589;53.636;10.012;2022-12-18T17:51:52;29.20;;;14.93;;
20857;SDS011;10589;53.636;10.012;2022-12-18T17:54:18;28.40;;;15.63;;
20857;SDS011;10589;53.636;10.012;2022-12-18T17:56:45;32.03;;;15.43;;
20857;SDS011;10589;53.636;10.012;2022-12-18T17:59:12;28.37;;;14.57;;
20857;SDS011;10589;53.636;10.012;2022-12-18T18:01:37;26.10;;;14.93;;
20857;SDS011;10589;53.636;10.012;2022-12-18T18:04:03;26.33;;;13.90;;
20857;SDS011;10589;53.636;10.012;2022-12-18T18:06:29;25.47;;;13.60;;
20857;SDS011;10589;53.636;10.012;2022-12-18T18:08:55;26.97;;;14.70;;
20857;SDS011;10589;53.636;10.012;2022-12-18T18:11:21;29.50;;;16.27;;
20857;SDS011;10589;53.636;10.012;2022-12-18T18:14:14;25.37;;;13.80;;
20857;SDS011;10589;53.636;10.012;2022-12-18T18:16:42;25.77;;;14.03;;
20857;SDS011;10589;53.636;10.012;2022-12-18T18:19:11;26.23;;;13.17;;
20857;SDS011;10589;53.636;10.012;2022-12-18T18:21:39;24.43;;;13.50;;
20857;SDS011;10589;53.636;10.012;2022-12-18T18:24:07;24.07;;;13.63;;
20857;SDS011;10589;53.636;10.012;2022-12-18T18:26:34;24.67;;;12.90;;
20857;SDS011;10589;53.636;10.012;2022-12-18T18:29:01;21.83;;;13.03;;
20857;SDS011;10589;53.636;10.012;2022-12-18T18:31:29;23.80;;;12.40;;
20857;SDS011;10589;53.636;10.012;2022-12-18T18:33:55;22.53;;;12.67;;
20857;SDS011;10589;53.636;10.012;2022-12-18T18:36:21;22.37;;;12.80;;
20857;SDS011;10589;53.636;10.012;2022-12-18T18:38:47;24.33;;;13.03;;
20857;SDS011;10589;53.636;10.012;2022-12-18T18:41:14;24.20;;;13.37;;
20857;SDS011;10589;53.636;10.012;2022-12-18T18:43:40;19.83;;;12.40;;
20857;SDS011;10589;53.636;10.012;2022-12-18T18:46:06;21.90;;;12.10;;
20857;SDS011;10589;53.636;10.012;2022-12-18T18:48:35;22.57;;;13.03;;
20857;SDS011;10589;53.636;10.012;2022-12-18T18:51:02;21.83;;;11.50;;
20857;SDS011;10589;53.636;10.012;2022-12-18T18:53:30;24.50;;;12.20;;
20857;SDS011;10589;53.636;10.012;2022-12-18T18:55:59;21.23;;;11.17;;
20857;SDS011;10589;53.636;10.012;2022-12-18T18:58:25;21.70;;;12.73;;
20857;SDS011;10589;53.636;10.012;2022-12-18T19:00:54;23.43;;;12.33;;
20857;SDS011;10589;53.636;10.012;2022-12-18T19:03:21;21.70;;;11.77;;
20857;SDS011;10589;53.636;10.012;2022-12-18T19:05:49;21.33;;;11.97;;
20857;SDS011;10589;53.636;10.012;2022-12-18T19:08:20;25.13;;;12.90;;
20857;SDS011;10589;53.636;10.012;2022-12-18T19:10:48;25.10;;;12.70;;
20857;SDS011;10589;53.636;10.012;2022-12-18T19:13:15;20.83;;;11.63;;
20857;SDS011;10589;53.636;10.012;2022-12-18T19:15:49;22.13;;;12.77;;
20857;SDS011;10589;53.636;10.012;2022-12-18T19:18:16;19.60;;;10.77;;
20857;SDS011;10589;53.636;10.012;2022-12-18T19:20:42;22.07;;;12.37;;
20857;SDS011;10589;53.636;10.012;2022-12-18T19:23:08;20.87;;;11.90;;
20857;SDS011;10589;53.636;10.012;2022-12-18T19:25:38;19.63;;;10.90;;
20857;SDS011;10589;53.636;10.012;2022-12-18T19:28:04;21.23;;;11.23;;
20857;SDS011;10589;53.636;10.012;2022-12-18T19:30:30;22.20;;;10.93;;
20857;SDS011;10589;53.636;10.012;2022-12-18T19:32:56;21.73;;;10.70;;
20857;SDS011;10589;53.636;10.012;2022-12-18T19:35:22;21.57;;;11.73;;
20857;SDS011;10589;53.636;10.012;2022-12-18T19:37:47;21.30;;;11.63;;
20857;SDS011;10589;53.636;10.012;2022-12-18T19:40:13;21.93;;;11.67;;
20857;SDS011;10589;53.636;10.012;2022-12-18T19:42:39;19.93;;;10.83;;
20857;SDS011;10589;53.636;10.012;2022-12-18T19:45:04;23.27;;;11.10;;
20857;SDS011;10589;53.636;10.012;2022-12-18T19:47:30;19.20;;;10.87;;
20857;SDS011;10589;53.636;10.012;2022-12-18T19:49:56;23.17;;;11.40;;
20857;SDS011;10589;53.636;10.012;2022-12-18T19:52:22;20.47;;;11.20;;
20857;SDS011;10589;53.636;10.012;2022-12-18T19:54:47;20.40;;;11.97;;
20857;SDS011;10589;53.636;10.012;2022-12-18T19:57:13;20.33;;;11.93;;
20857;SDS011;10589;53.636;10.012;2022-12-18T19:59:38;18.93;;;10.80;;
20857;SDS011;10589;53.636;10.012;2022-12-18T20:02:04;22.00;;;12.30;;
20857;SDS011;10589;53.636;10.012;2022-12-18T20:04:30;24.63;;;12.20;;
20857;SDS011;10589;53.636;10.012;2022-12-18T20:06:55;22.07;;;12.07;;
20857;SDS011;10589;53.636;10.012;2022-12-18T20:09:21;21.20;;;11.87;;
20857;SDS011;10589;53.636;10.012;2022-12-18T20:11:47;25.67;;;12.23;;
20857;SDS011;10589;53.636;10.012;2022-12-18T20:14:13;21.50;;;11.53;;
20857;SDS011;10589;53.636;10.012;2022-12-18T20:16:40;22.67;;;12.03;;
20857;SDS011;10589;53.636;10.012;2022-12-18T20:19:06;25.20;;;11.97;;
20857;SDS011;10589;53.636;10.012;2022-12-18T20:21:32;25.17;;;12.70;;
20857;SDS011;10589;53.636;10.012;2022-12-18T20:23:58;21.27;;;12.20;;
20857;SDS011;10589;53.636;10.012;2022-12-18T20:26:25;22.20;;;11.87;;
20857;SDS011;10589;53.636;10.012;2022-12-18T20:28:51;23.80;;;12.53;;
20857;SDS011;10589;53.636;10.012;2022-12-18T20:31:17;23.00;;;12.53;;
20857;SDS011;10589;53.636;10.012;2022-12-18T20:33:43;24.77;;;12.20;;
20857;SDS011;10589;53.636;10.012;2022-12-18T20:36:13;24.17;;;11.83;;
20857;SDS011;10589;53.636;10.012;2022-12-18T20:38:40;24.40;;;12.77;;
20857;SDS011;10589;53.636;10.012;2022-12-18T20:41:06;20.77;;;11.87;;
20857;SDS011;10589;53.636;10.012;2022-12-18T20:43:34;22.00;;;11.57;;
20857;SDS011;10589;53.636;10.012;2022-12-18T20:46:04;23.50;;;12.30;;
20857;SDS011;10589;53.636;10.012;2022-12-18T20:48:31;22.40;;;12.07;;